Terminal Aerodrome Forecast
Issued by NWS

Home | Current Version | Previous Version | Text Only | Print | Product List | Glossary On
Versions: 1 2 3 4 5 6 7 8 9 10 11 12 13 14 15 16 17 18 19 20 21 22
000
FTUS45 KBOI 260540
TAFMYL
TAF
KMYL 260540Z 2606/2706 20010G20KT P6SM -SHRA SCT030 OVC050
     FM260900 19010KT 6SM -RA OVC025
     FM261400 20012KT P6SM -RA BKN025 OVC035
     FM261800 24015KT P6SM VCSH BKN050 OVC080
     FM270300 27008KT P6SM SCT060 BKN080=

USA.gov is the U.S. government's official web portal to all federal, state and local government web resources and services.